Yulan, New York
Current Conditions -  °F | °C
As of 10:55 AM on Friday 24 Oct 2014 (Local Time) from KMSV Reporting Station
Overcast Overcast  
Wind Chill: 42°   Ceiling: 1800
Heat Index: 48°   Visibility: 10mi
Dew Point: 43°   Wind: 16mph
Humidity: 82%   Direction: 330°NNW
Pressure: 29.86"   Gusts: 22mph
Location:  41.52°N, 74.93°W
Report Text: KMSV 241455Z AUTO 33014G19KT 10SM OVC018 09/06 A2986 RMK AO1 52003
Loading
Personal Weather Stations






























Interactive Weather Map
Tropical Storm Tracking
New forecast layout! Learn more

10-Day Weather Forecast

Advertisements
Track Severe Weather on mobile